sensor_id;sensor_type;location;lat;lon;timestamp;P1;durP1;ratioP1;P2;durP2;ratioP2
24787;SDS011;12883;52.662;5.196;2023-10-19T00:00:40;15.97;;;15.87;;
24787;SDS011;12883;52.662;5.196;2023-10-19T00:03:10;15.93;;;15.83;;
24787;SDS011;12883;52.662;5.196;2023-10-19T00:05:39;15.63;;;15.53;;
24787;SDS011;12883;52.662;5.196;2023-10-19T00:08:06;15.40;;;15.37;;
24787;SDS011;12883;52.662;5.196;2023-10-19T00:10:38;14.37;;;14.37;;
24787;SDS011;12883;52.662;5.196;2023-10-19T00:13:08;15.03;;;15.03;;
24787;SDS011;12883;52.662;5.196;2023-10-19T00:15:40;14.33;;;14.33;;
24787;SDS011;12883;52.662;5.196;2023-10-19T00:18:19;14.00;;;14.00;;
24787;SDS011;12883;52.662;5.196;2023-10-19T00:20:47;14.23;;;14.23;;
24787;SDS011;12883;52.662;5.196;2023-10-19T00:23:17;14.00;;;14.00;;
24787;SDS011;12883;52.662;5.196;2023-10-19T00:25:46;13.57;;;13.57;;
24787;SDS011;12883;52.662;5.196;2023-10-19T00:28:16;12.80;;;12.80;;
24787;SDS011;12883;52.662;5.196;2023-10-19T00:30:42;14.03;;;14.03;;
24787;SDS011;12883;52.662;5.196;2023-10-19T00:33:10;13.57;;;13.57;;
24787;SDS011;12883;52.662;5.196;2023-10-19T00:35:43;12.70;;;12.70;;
24787;SDS011;12883;52.662;5.196;2023-10-19T00:38:12;13.20;;;13.20;;
24787;SDS011;12883;52.662;5.196;2023-10-19T00:41:08;13.20;;;13.20;;
24787;SDS011;12883;52.662;5.196;2023-10-19T00:43:34;13.70;;;13.70;;
24787;SDS011;12883;52.662;5.196;2023-10-19T00:46:13;13.13;;;13.13;;
24787;SDS011;12883;52.662;5.196;2023-10-19T00:48:55;12.80;;;12.80;;
24787;SDS011;12883;52.662;5.196;2023-10-19T00:51:44;13.43;;;13.43;;
24787;SDS011;12883;52.662;5.196;2023-10-19T00:54:17;13.23;;;13.23;;
24787;SDS011;12883;52.662;5.196;2023-10-19T00:56:58;13.03;;;13.03;;
24787;SDS011;12883;52.662;5.196;2023-10-19T00:59:38;13.30;;;13.30;;
24787;SDS011;12883;52.662;5.196;2023-10-19T01:02:17;13.20;;;13.20;;
24787;SDS011;12883;52.662;5.196;2023-10-19T01:04:45;13.00;;;13.00;;
24787;SDS011;12883;52.662;5.196;2023-10-19T01:07:15;14.00;;;14.00;;
24787;SDS011;12883;52.662;5.196;2023-10-19T01:09:48;12.37;;;12.37;;
24787;SDS011;12883;52.662;5.196;2023-10-19T01:12:19;12.13;;;12.13;;
24787;SDS011;12883;52.662;5.196;2023-10-19T01:17:39;11.67;;;11.67;;
24787;SDS011;12883;52.662;5.196;2023-10-19T01:20:09;10.27;;;10.27;;
24787;SDS011;12883;52.662;5.196;2023-10-19T01:25:49;10.53;;;10.53;;
24787;SDS011;12883;52.662;5.196;2023-10-19T01:28:19;10.60;;;10.60;;
24787;SDS011;12883;52.662;5.196;2023-10-19T01:30:47;10.53;;;10.53;;
24787;SDS011;12883;52.662;5.196;2023-10-19T01:33:16;9.93;;;9.93;;
24787;SDS011;12883;52.662;5.196;2023-10-19T01:35:43;9.13;;;9.13;;
24787;SDS011;12883;52.662;5.196;2023-10-19T01:38:28;10.03;;;10.03;;
24787;SDS011;12883;52.662;5.196;2023-10-19T01:41:01;9.67;;;9.67;;
24787;SDS011;12883;52.662;5.196;2023-10-19T01:43:31;9.70;;;9.70;;
24787;SDS011;12883;52.662;5.196;2023-10-19T01:46:00;9.87;;;9.87;;
24787;SDS011;12883;52.662;5.196;2023-10-19T01:48:30;11.10;;;11.10;;
24787;SDS011;12883;52.662;5.196;2023-10-19T01:51:02;10.70;;;10.70;;
24787;SDS011;12883;52.662;5.196;2023-10-19T01:53:32;10.53;;;10.53;;
24787;SDS011;12883;52.662;5.196;2023-10-19T01:55:59;11.33;;;11.33;;
24787;SDS011;12883;52.662;5.196;2023-10-19T01:58:25;11.90;;;11.90;;
24787;SDS011;12883;52.662;5.196;2023-10-19T02:00:50;11.03;;;11.03;;
24787;SDS011;12883;52.662;5.196;2023-10-19T02:03:21;11.93;;;11.93;;
24787;SDS011;12883;52.662;5.196;2023-10-19T02:05:48;12.27;;;12.27;;
24787;SDS011;12883;52.662;5.196;2023-10-19T02:08:15;12.90;;;12.90;;
24787;SDS011;12883;52.662;5.196;2023-10-19T02:10:46;13.33;;;13.33;;
24787;SDS011;12883;52.662;5.196;2023-10-19T02:13:12;13.23;;;13.23;;
24787;SDS011;12883;52.662;5.196;2023-10-19T02:15:40;14.80;;;14.80;;
24787;SDS011;12883;52.662;5.196;2023-10-19T02:18:07;15.10;;;15.10;;
24787;SDS011;12883;52.662;5.196;2023-10-19T02:20:34;16.17;;;16.17;;
24787;SDS011;12883;52.662;5.196;2023-10-19T02:22:59;16.00;;;16.00;;
24787;SDS011;12883;52.662;5.196;2023-10-19T02:25:28;16.60;;;16.60;;
24787;SDS011;12883;52.662;5.196;2023-10-19T02:27:55;17.63;;;17.63;;
24787;SDS011;12883;52.662;5.196;2023-10-19T02:30:21;19.40;;;19.40;;
24787;SDS011;12883;52.662;5.196;2023-10-19T02:32:46;19.63;;;19.63;;
24787;SDS011;12883;52.662;5.196;2023-10-19T02:35:13;20.83;;;20.73;;
24787;SDS011;12883;52.662;5.196;2023-10-19T02:37:39;20.27;;;20.27;;
24787;SDS011;12883;52.662;5.196;2023-10-19T02:40:05;20.80;;;20.70;;
24787;SDS011;12883;52.662;5.196;2023-10-19T02:42:48;21.77;;;21.67;;
24787;SDS011;12883;52.662;5.196;2023-10-19T02:45:15;21.70;;;21.60;;
24787;SDS011;12883;52.662;5.196;2023-10-19T02:47:44;23.23;;;23.13;;
24787;SDS011;12883;52.662;5.196;2023-10-19T02:50:11;23.30;;;23.20;;
24787;SDS011;12883;52.662;5.196;2023-10-19T02:52:41;25.07;;;24.97;;
24787;SDS011;12883;52.662;5.196;2023-10-19T02:55:07;25.97;;;25.87;;
24787;SDS011;12883;52.662;5.196;2023-10-19T02:57:33;27.63;;;27.53;;
24787;SDS011;12883;52.662;5.196;2023-10-19T02:59:58;26.60;;;26.50;;
24787;SDS011;12883;52.662;5.196;2023-10-19T03:02:24;27.53;;;27.43;;
24787;SDS011;12883;52.662;5.196;2023-10-19T03:04:53;28.80;;;28.70;;
24787;SDS011;12883;52.662;5.196;2023-10-19T03:07:18;29.47;;;29.37;;
24787;SDS011;12883;52.662;5.196;2023-10-19T03:09:44;30.03;;;29.93;;
24787;SDS011;12883;52.662;5.196;2023-10-19T03:12:18;29.90;;;29.80;;
24787;SDS011;12883;52.662;5.196;2023-10-19T03:14:44;30.30;;;30.20;;
24787;SDS011;12883;52.662;5.196;2023-10-19T03:17:13;31.17;;;31.07;;
24787;SDS011;12883;52.662;5.196;2023-10-19T03:19:39;31.07;;;30.97;;
24787;SDS011;12883;52.662;5.196;2023-10-19T03:22:04;32.97;;;32.87;;
24787;SDS011;12883;52.662;5.196;2023-10-19T03:24:31;34.93;;;34.83;;
24787;SDS011;12883;52.662;5.196;2023-10-19T03:27:09;34.50;;;34.40;;
24787;SDS011;12883;52.662;5.196;2023-10-19T03:29:42;36.10;;;36.00;;
24787;SDS011;12883;52.662;5.196;2023-10-19T03:32:11;35.37;;;35.27;;
24787;SDS011;12883;52.662;5.196;2023-10-19T03:34:37;37.10;;;36.93;;
24787;SDS011;12883;52.662;5.196;2023-10-19T03:37:03;36.13;;;36.03;;
24787;SDS011;12883;52.662;5.196;2023-10-19T03:39:34;34.03;;;33.93;;
24787;SDS011;12883;52.662;5.196;2023-10-19T03:42:02;36.97;;;36.77;;
24787;SDS011;12883;52.662;5.196;2023-10-19T03:44:31;36.97;;;36.87;;
24787;SDS011;12883;52.662;5.196;2023-10-19T03:47:08;36.77;;;36.60;;
24787;SDS011;12883;52.662;5.196;2023-10-19T03:49:38;39.93;;;39.73;;
24787;SDS011;12883;52.662;5.196;2023-10-19T03:52:04;38.00;;;37.80;;
24787;SDS011;12883;52.662;5.196;2023-10-19T03:54:33;37.30;;;37.10;;
24787;SDS011;12883;52.662;5.196;2023-10-19T03:57:04;37.93;;;37.73;;
24787;SDS011;12883;52.662;5.196;2023-10-19T03:59:32;37.60;;;37.40;;
24787;SDS011;12883;52.662;5.196;2023-10-19T04:02:00;37.53;;;37.33;;
24787;SDS011;12883;52.662;5.196;2023-10-19T04:04:32;39.10;;;38.90;;
24787;SDS011;12883;52.662;5.196;2023-10-19T04:06:58;38.97;;;38.77;;
24787;SDS011;12883;52.662;5.196;2023-10-19T04:09:24;37.87;;;37.67;;
24787;SDS011;12883;52.662;5.196;2023-10-19T04:11:55;35.40;;;35.30;;
24787;SDS011;12883;52.662;5.196;2023-10-19T04:14:21;34.50;;;34.40;;
24787;SDS011;12883;52.662;5.196;2023-10-19T04:16:46;34.70;;;34.60;;
24787;SDS011;12883;52.662;5.196;2023-10-19T04:19:13;35.17;;;35.08;;
24787;SDS011;12883;52.662;5.196;2023-10-19T04:21:40;34.83;;;34.73;;
24787;SDS011;12883;52.662;5.196;2023-10-19T04:24:09;35.13;;;34.97;;
24787;SDS011;12883;52.662;5.196;2023-10-19T04:26:35;33.50;;;33.40;;
24787;SDS011;12883;52.662;5.196;2023-10-19T04:29:05;35.63;;;35.43;;
24787;SDS011;12883;52.662;5.196;2023-10-19T04:31:42;35.97;;;35.88;;
24787;SDS011;12883;52.662;5.196;2023-10-19T04:34:21;35.93;;;35.73;;
24787;SDS011;12883;52.662;5.196;2023-10-19T04:36:47;36.93;;;36.73;;
24787;SDS011;12883;52.662;5.196;2023-10-19T04:39:13;35.33;;;35.23;;
24787;SDS011;12883;52.662;5.196;2023-10-19T04:41:41;34.73;;;34.53;;
24787;SDS011;12883;52.662;5.196;2023-10-19T04:44:07;32.88;;;32.78;;
24787;SDS011;12883;52.662;5.196;2023-10-19T04:46:35;34.07;;;33.97;;
24787;SDS011;12883;52.662;5.196;2023-10-19T04:49:01;31.33;;;31.23;;
24787;SDS011;12883;52.662;5.196;2023-10-19T04:51:28;31.40;;;31.30;;
24787;SDS011;12883;52.662;5.196;2023-10-19T04:53:54;30.43;;;30.33;;
24787;SDS011;12883;52.662;5.196;2023-10-19T04:56:20;32.07;;;31.97;;
24787;SDS011;12883;52.662;5.196;2023-10-19T04:58:45;30.43;;;30.33;;
24787;SDS011;12883;52.662;5.196;2023-10-19T05:01:12;30.53;;;30.43;;
24787;SDS011;12883;52.662;5.196;2023-10-19T05:03:37;32.63;;;32.53;;
24787;SDS011;12883;52.662;5.196;2023-10-19T05:06:03;33.13;;;33.03;;
24787;SDS011;12883;52.662;5.196;2023-10-19T05:08:29;33.03;;;32.83;;
24787;SDS011;12883;52.662;5.196;2023-10-19T05:10:55;32.57;;;32.47;;
24787;SDS011;12883;52.662;5.196;2023-10-19T05:13:24;34.97;;;34.77;;
24787;SDS011;12883;52.662;5.196;2023-10-19T05:15:50;33.93;;;33.80;;
24787;SDS011;12883;52.662;5.196;2023-10-19T05:18:19;33.07;;;32.97;;
24787;SDS011;12883;52.662;5.196;2023-10-19T05:20:46;33.80;;;33.60;;
24787;SDS011;12883;52.662;5.196;2023-10-19T05:23:11;33.88;;;33.67;;
24787;SDS011;12883;52.662;5.196;2023-10-19T05:25:38;34.53;;;34.33;;
24787;SDS011;12883;52.662;5.196;2023-10-19T05:28:04;34.00;;;33.80;;
24787;SDS011;12883;52.662;5.196;2023-10-19T05:30:30;32.83;;;32.73;;
24787;SDS011;12883;52.662;5.196;2023-10-19T05:32:57;34.83;;;34.63;;
24787;SDS011;12883;52.662;5.196;2023-10-19T05:35:24;32.13;;;32.03;;
24787;SDS011;12883;52.662;5.196;2023-10-19T05:37:51;32.93;;;32.73;;
24787;SDS011;12883;52.662;5.196;2023-10-19T05:40:17;32.47;;;32.37;;
24787;SDS011;12883;52.662;5.196;2023-10-19T05:42:44;32.37;;;32.27;;
24787;SDS011;12883;52.662;5.196;2023-10-19T05:45:11;31.97;;;31.87;;
24787;SDS011;12883;52.662;5.196;2023-10-19T05:47:38;32.23;;;32.13;;
24787;SDS011;12883;52.662;5.196;2023-10-19T05:50:03;30.97;;;30.77;;
24787;SDS011;12883;52.662;5.196;2023-10-19T05:52:29;30.38;;;30.17;;
24787;SDS011;12883;52.662;5.196;2023-10-19T05:54:55;28.67;;;28.58;;
24787;SDS011;12883;52.662;5.196;2023-10-19T05:57:20;28.17;;;28.00;;
24787;SDS011;12883;52.662;5.196;2023-10-19T05:59:47;26.58;;;26.48;;
24787;SDS011;12883;52.662;5.196;2023-10-19T06:02:12;26.52;;;26.42;;
24787;SDS011;12883;52.662;5.196;2023-10-19T06:04:38;25.80;;;25.70;;
24787;SDS011;12883;52.662;5.196;2023-10-19T06:07:03;25.60;;;25.50;;
24787;SDS011;12883;52.662;5.196;2023-10-19T06:09:28;26.02;;;25.92;;
24787;SDS011;12883;52.662;5.196;2023-10-19T06:11:57;24.23;;;24.13;;
24787;SDS011;12883;52.662;5.196;2023-10-19T06:14:22;22.60;;;22.50;;
24787;SDS011;12883;52.662;5.196;2023-10-19T06:16:47;24.10;;;24.00;;
24787;SDS011;12883;52.662;5.196;2023-10-19T06:19:13;21.57;;;21.47;;
24787;SDS011;12883;52.662;5.196;2023-10-19T06:21:38;20.07;;;19.97;;
24787;SDS011;12883;52.662;5.196;2023-10-19T06:24:05;21.17;;;21.07;;
24787;SDS011;12883;52.662;5.196;2023-10-19T06:26:30;19.90;;;19.80;;
24787;SDS011;12883;52.662;5.196;2023-10-19T06:28:56;17.57;;;17.47;;
24787;SDS011;12883;52.662;5.196;2023-10-19T06:31:24;15.00;;;15.00;;
24787;SDS011;12883;52.662;5.196;2023-10-19T06:33:50;15.55;;;15.45;;
24787;SDS011;12883;52.662;5.196;2023-10-19T06:36:16;14.05;;;13.95;;
24787;SDS011;12883;52.662;5.196;2023-10-19T06:38:42;12.65;;;12.57;;
24787;SDS011;12883;52.662;5.196;2023-10-19T06:41:13;12.35;;;12.35;;
24787;SDS011;12883;52.662;5.196;2023-10-19T06:43:39;10.40;;;10.40;;
24787;SDS011;12883;52.662;5.196;2023-10-19T06:46:05;10.50;;;10.50;;
24787;SDS011;12883;52.662;5.196;2023-10-19T06:48:31;10.40;;;10.40;;
24787;SDS011;12883;52.662;5.196;2023-10-19T06:50:57;9.82;;;9.82;;
24787;SDS011;12883;52.662;5.196;2023-10-19T06:53:22;9.02;;;9.02;;
24787;SDS011;12883;52.662;5.196;2023-10-19T06:55:48;9.00;;;9.00;;
24787;SDS011;12883;52.662;5.196;2023-10-19T06:58:13;8.73;;;8.73;;
24787;SDS011;12883;52.662;5.196;2023-10-19T07:00:44;8.80;;;8.80;;
24787;SDS011;12883;52.662;5.196;2023-10-19T07:03:10;6.53;;;6.53;;
24787;SDS011;12883;52.662;5.196;2023-10-19T07:05:36;6.87;;;6.87;;
24787;SDS011;12883;52.662;5.196;2023-10-19T07:08:01;6.40;;;6.40;;
24787;SDS011;12883;52.662;5.196;2023-10-19T07:10:28;5.45;;;5.45;;
24787;SDS011;12883;52.662;5.196;2023-10-19T07:12:54;5.73;;;5.73;;
24787;SDS011;12883;52.662;5.196;2023-10-19T07:15:21;5.03;;;5.03;;
24787;SDS011;12883;52.662;5.196;2023-10-19T07:17:49;5.03;;;5.03;;
24787;SDS011;12883;52.662;5.196;2023-10-19T07:20:17;4.80;;;4.80;;
24787;SDS011;12883;52.662;5.196;2023-10-19T07:22:57;4.20;;;4.20;;
24787;SDS011;12883;52.662;5.196;2023-10-19T07:25:43;3.85;;;3.85;;
24787;SDS011;12883;52.662;5.196;2023-10-19T07:28:09;3.97;;;3.97;;
24787;SDS011;12883;52.662;5.196;2023-10-19T07:30:35;4.07;;;4.07;;
24787;SDS011;12883;52.662;5.196;2023-10-19T07:33:01;3.85;;;3.85;;
24787;SDS011;12883;52.662;5.196;2023-10-19T07:35:29;3.97;;;3.97;;
24787;SDS011;12883;52.662;5.196;2023-10-19T07:37:59;3.50;;;3.50;;
24787;SDS011;12883;52.662;5.196;2023-10-19T07:40:26;3.67;;;3.67;;
24787;SDS011;12883;52.662;5.196;2023-10-19T07:42:53;3.47;;;3.47;;
24787;SDS011;12883;52.662;5.196;2023-10-19T07:45:19;3.72;;;3.72;;
24787;SDS011;12883;52.662;5.196;2023-10-19T07:47:45;3.13;;;3.13;;
24787;SDS011;12883;52.662;5.196;2023-10-19T07:50:11;3.55;;;3.55;;
24787;SDS011;12883;52.662;5.196;2023-10-19T07:52:41;3.03;;;3.03;;
24787;SDS011;12883;52.662;5.196;2023-10-19T07:55:11;3.03;;;3.03;;
24787;SDS011;12883;52.662;5.196;2023-10-19T07:57:37;3.30;;;3.30;;
24787;SDS011;12883;52.662;5.196;2023-10-19T08:00:03;3.25;;;3.25;;
24787;SDS011;12883;52.662;5.196;2023-10-19T08:02:29;3.35;;;3.35;;
24787;SDS011;12883;52.662;5.196;2023-10-19T08:04:55;3.13;;;3.13;;
24787;SDS011;12883;52.662;5.196;2023-10-19T08:07:21;4.10;;;4.10;;
24787;SDS011;12883;52.662;5.196;2023-10-19T08:09:47;2.90;;;2.90;;
24787;SDS011;12883;52.662;5.196;2023-10-19T08:12:12;3.45;;;3.45;;
24787;SDS011;12883;52.662;5.196;2023-10-19T08:14:38;3.65;;;3.65;;
24787;SDS011;12883;52.662;5.196;2023-10-19T08:17:04;3.35;;;3.35;;
24787;SDS011;12883;52.662;5.196;2023-10-19T08:19:30;3.20;;;3.20;;
24787;SDS011;12883;52.662;5.196;2023-10-19T08:21:56;3.03;;;3.03;;
24787;SDS011;12883;52.662;5.196;2023-10-19T08:24:22;3.28;;;3.28;;
24787;SDS011;12883;52.662;5.196;2023-10-19T08:26:48;3.80;;;3.80;;
24787;SDS011;12883;52.662;5.196;2023-10-19T08:29:15;3.22;;;3.22;;
24787;SDS011;12883;52.662;5.196;2023-10-19T08:31:42;3.55;;;3.55;;
24787;SDS011;12883;52.662;5.196;2023-10-19T08:34:09;3.47;;;3.47;;
24787;SDS011;12883;52.662;5.196;2023-10-19T08:36:36;3.65;;;3.65;;
24787;SDS011;12883;52.662;5.196;2023-10-19T08:39:03;4.20;;;4.10;;
24787;SDS011;12883;52.662;5.196;2023-10-19T08:41:35;3.03;;;3.03;;
24787;SDS011;12883;52.662;5.196;2023-10-19T08:44:02;3.58;;;3.58;;
24787;SDS011;12883;52.662;5.196;2023-10-19T08:46:28;3.47;;;3.47;;
24787;SDS011;12883;52.662;5.196;2023-10-19T08:48:57;3.35;;;3.35;;
24787;SDS011;12883;52.662;5.196;2023-10-19T08:51:22;3.55;;;3.55;;
24787;SDS011;12883;52.662;5.196;2023-10-19T08:53:50;3.70;;;3.70;;
24787;SDS011;12883;52.662;5.196;2023-10-19T08:56:18;3.40;;;3.40;;
24787;SDS011;12883;52.662;5.196;2023-10-19T08:58:45;3.42;;;3.42;;
24787;SDS011;12883;52.662;5.196;2023-10-19T09:01:11;3.67;;;3.67;;
24787;SDS011;12883;52.662;5.196;2023-10-19T09:03:37;4.10;;;4.10;;
24787;SDS011;12883;52.662;5.196;2023-10-19T09:06:04;3.72;;;3.72;;
24787;SDS011;12883;52.662;5.196;2023-10-19T09:08:30;3.33;;;3.33;;
24787;SDS011;12883;52.662;5.196;2023-10-19T09:11:08;3.80;;;3.80;;
24787;SDS011;12883;52.662;5.196;2023-10-19T09:13:50;2.88;;;2.88;;
24787;SDS011;12883;52.662;5.196;2023-10-19T09:16:17;3.63;;;3.63;;
24787;SDS011;12883;52.662;5.196;2023-10-19T09:18:47;3.72;;;3.72;;
24787;SDS011;12883;52.662;5.196;2023-10-19T09:21:17;3.28;;;3.28;;
24787;SDS011;12883;52.662;5.196;2023-10-19T09:23:50;3.30;;;3.30;;
24787;SDS011;12883;52.662;5.196;2023-10-19T09:26:17;3.80;;;3.80;;
24787;SDS011;12883;52.662;5.196;2023-10-19T09:28:45;3.47;;;3.47;;
24787;SDS011;12883;52.662;5.196;2023-10-19T09:31:13;3.75;;;3.75;;
24787;SDS011;12883;52.662;5.196;2023-10-19T09:33:41;3.00;;;3.00;;
24787;SDS011;12883;52.662;5.196;2023-10-19T09:36:08;3.70;;;3.70;;
24787;SDS011;12883;52.662;5.196;2023-10-19T09:38:43;3.45;;;3.45;;
24787;SDS011;12883;52.662;5.196;2023-10-19T09:41:12;3.38;;;3.38;;
24787;SDS011;12883;52.662;5.196;2023-10-19T09:43:41;4.45;;;4.45;;
24787;SDS011;12883;52.662;5.196;2023-10-19T09:46:09;4.20;;;4.20;;
24787;SDS011;12883;52.662;5.196;2023-10-19T09:48:40;3.70;;;3.70;;
24787;SDS011;12883;52.662;5.196;2023-10-19T09:51:07;3.60;;;3.60;;
24787;SDS011;12883;52.662;5.196;2023-10-19T09:53:34;4.03;;;4.03;;
24787;SDS011;12883;52.662;5.196;2023-10-19T09:56:01;3.95;;;3.95;;
24787;SDS011;12883;52.662;5.196;2023-10-19T09:58:41;4.05;;;4.05;;
24787;SDS011;12883;52.662;5.196;2023-10-19T10:01:11;3.75;;;3.75;;
24787;SDS011;12883;52.662;5.196;2023-10-19T10:03:46;3.83;;;3.83;;
24787;SDS011;12883;52.662;5.196;2023-10-19T10:06:28;3.42;;;3.42;;
24787;SDS011;12883;52.662;5.196;2023-10-19T10:08:55;4.15;;;4.15;;
24787;SDS011;12883;52.662;5.196;2023-10-19T10:11:22;3.70;;;3.70;;
24787;SDS011;12883;52.662;5.196;2023-10-19T10:13:52;3.65;;;3.65;;
24787;SDS011;12883;52.662;5.196;2023-10-19T10:16:19;3.75;;;3.75;;
24787;SDS011;12883;52.662;5.196;2023-10-19T10:18:48;3.20;;;3.20;;
24787;SDS011;12883;52.662;5.196;2023-10-19T10:21:21;3.88;;;3.88;;
24787;SDS011;12883;52.662;5.196;2023-10-19T10:26:19;5.05;;;5.05;;
24787;SDS011;12883;52.662;5.196;2023-10-19T10:31:35;5.00;;;5.00;;
24787;SDS011;12883;52.662;5.196;2023-10-19T10:34:05;4.50;;;4.50;;
24787;SDS011;12883;52.662;5.196;2023-10-19T10:36:57;4.20;;;4.20;;
24787;SDS011;12883;52.662;5.196;2023-10-19T10:39:22;3.63;;;3.63;;
24787;SDS011;12883;52.662;5.196;2023-10-19T10:41:54;4.35;;;4.35;;
24787;SDS011;12883;52.662;5.196;2023-10-19T10:44:20;4.55;;;4.55;;
24787;SDS011;12883;52.662;5.196;2023-10-19T10:46:46;4.60;;;4.60;;
24787;SDS011;12883;52.662;5.196;2023-10-19T10:49:14;3.58;;;3.58;;
24787;SDS011;12883;52.662;5.196;2023-10-19T10:51:40;4.45;;;4.45;;
24787;SDS011;12883;52.662;5.196;2023-10-19T10:54:06;4.40;;;4.40;;
24787;SDS011;12883;52.662;5.196;2023-10-19T10:56:39;5.18;;;5.10;;
24787;SDS011;12883;52.662;5.196;2023-10-19T10:59:12;5.55;;;5.55;;
24787;SDS011;12883;52.662;5.196;2023-10-19T11:01:38;4.95;;;4.95;;
24787;SDS011;12883;52.662;5.196;2023-10-19T11:04:07;5.28;;;5.28;;
24787;SDS011;12883;52.662;5.196;2023-10-19T11:06:47;4.60;;;4.60;;
24787;SDS011;12883;52.662;5.196;2023-10-19T11:09:14;5.90;;;5.90;;
24787;SDS011;12883;52.662;5.196;2023-10-19T11:11:43;5.15;;;5.15;;
24787;SDS011;12883;52.662;5.196;2023-10-19T11:14:09;5.10;;;5.10;;
24787;SDS011;12883;52.662;5.196;2023-10-19T11:16:36;5.75;;;5.75;;
24787;SDS011;12883;52.662;5.196;2023-10-19T11:19:04;4.32;;;4.32;;
24787;SDS011;12883;52.662;5.196;2023-10-19T11:21:29;4.75;;;4.75;;
24787;SDS011;12883;52.662;5.196;2023-10-19T11:23:55;4.55;;;4.55;;
24787;SDS011;12883;52.662;5.196;2023-10-19T11:26:22;5.18;;;5.18;;
24787;SDS011;12883;52.662;5.196;2023-10-19T11:28:58;5.03;;;5.03;;
24787;SDS011;12883;52.662;5.196;2023-10-19T11:31:29;5.70;;;5.70;;
24787;SDS011;12883;52.662;5.196;2023-10-19T11:34:02;5.30;;;5.30;;
24787;SDS011;12883;52.662;5.196;2023-10-19T11:36:29;5.13;;;5.13;;
24787;SDS011;12883;52.662;5.196;2023-10-19T11:38:54;6.78;;;6.72;;
24787;SDS011;12883;52.662;5.196;2023-10-19T11:41:20;5.18;;;5.18;;
24787;SDS011;12883;52.662;5.196;2023-10-19T11:43:46;5.80;;;5.80;;
24787;SDS011;12883;52.662;5.196;2023-10-19T11:46:13;6.70;;;6.63;;
24787;SDS011;12883;52.662;5.196;2023-10-19T11:48:40;6.57;;;6.57;;
24787;SDS011;12883;52.662;5.196;2023-10-19T11:51:07;7.18;;;7.18;;
24787;SDS011;12883;52.662;5.196;2023-10-19T11:53:36;7.25;;;7.25;;
24787;SDS011;12883;52.662;5.196;2023-10-19T11:56:02;7.45;;;7.45;;
24787;SDS011;12883;52.662;5.196;2023-10-19T11:58:30;8.57;;;8.50;;
24787;SDS011;12883;52.662;5.196;2023-10-19T12:00:59;7.22;;;7.22;;
24787;SDS011;12883;52.662;5.196;2023-10-19T12:03:33;7.60;;;7.60;;
24787;SDS011;12883;52.662;5.196;2023-10-19T12:06:03;8.50;;;8.50;;
24787;SDS011;12883;52.662;5.196;2023-10-19T12:08:31;8.88;;;8.77;;
24787;SDS011;12883;52.662;5.196;2023-10-19T12:11:01;7.95;;;7.93;;
24787;SDS011;12883;52.662;5.196;2023-10-19T12:13:28;7.78;;;7.78;;
24787;SDS011;12883;52.662;5.196;2023-10-19T12:15:54;9.60;;;9.50;;
24787;SDS011;12883;52.662;5.196;2023-10-19T12:18:23;7.18;;;7.18;;
24787;SDS011;12883;52.662;5.196;2023-10-19T12:20:51;7.93;;;7.93;;
24787;SDS011;12883;52.662;5.196;2023-10-19T12:23:21;7.18;;;7.18;;
24787;SDS011;12883;52.662;5.196;2023-10-19T12:25:48;7.88;;;7.88;;
24787;SDS011;12883;52.662;5.196;2023-10-19T12:28:13;7.57;;;7.57;;
24787;SDS011;12883;52.662;5.196;2023-10-19T12:30:39;7.40;;;7.30;;
24787;SDS011;12883;52.662;5.196;2023-10-19T12:33:06;7.07;;;7.07;;
24787;SDS011;12883;52.662;5.196;2023-10-19T12:35:36;7.30;;;7.25;;
24787;SDS011;12883;52.662;5.196;2023-10-19T12:38:19;7.20;;;7.20;;
24787;SDS011;12883;52.662;5.196;2023-10-19T12:40:45;6.90;;;6.90;;
24787;SDS011;12883;52.662;5.196;2023-10-19T12:43:15;7.63;;;7.53;;
24787;SDS011;12883;52.662;5.196;2023-10-19T12:45:43;6.97;;;6.88;;
24787;SDS011;12883;52.662;5.196;2023-10-19T12:48:15;7.75;;;7.65;;
24787;SDS011;12883;52.662;5.196;2023-10-19T12:50:41;6.95;;;6.95;;
24787;SDS011;12883;52.662;5.196;2023-10-19T12:53:07;7.03;;;7.03;;
24787;SDS011;12883;52.662;5.196;2023-10-19T12:55:32;6.72;;;6.72;;
24787;SDS011;12883;52.662;5.196;2023-10-19T12:57:59;5.75;;;5.75;;
24787;SDS011;12883;52.662;5.196;2023-10-19T13:00:32;5.85;;;5.85;;
24787;SDS011;12883;52.662;5.196;2023-10-19T13:03:02;5.85;;;5.85;;
24787;SDS011;12883;52.662;5.196;2023-10-19T13:05:33;5.47;;;5.47;;
24787;SDS011;12883;52.662;5.196;2023-10-19T13:08:00;5.72;;;5.72;;
24787;SDS011;12883;52.662;5.196;2023-10-19T13:10:47;6.40;;;6.40;;
24787;SDS011;12883;52.662;5.196;2023-10-19T13:13:14;7.30;;;7.20;;
24787;SDS011;12883;52.662;5.196;2023-10-19T13:15:40;6.13;;;6.13;;
24787;SDS011;12883;52.662;5.196;2023-10-19T13:18:08;6.28;;;6.28;;
24787;SDS011;12883;52.662;5.196;2023-10-19T13:20:35;6.32;;;6.32;;
24787;SDS011;12883;52.662;5.196;2023-10-19T13:23:02;6.38;;;6.38;;
24787;SDS011;12883;52.662;5.196;2023-10-19T13:25:32;6.22;;;6.22;;
24787;SDS011;12883;52.662;5.196;2023-10-19T13:28:18;8.10;;;8.00;;
24787;SDS011;12883;52.662;5.196;2023-10-19T13:30:51;6.07;;;6.07;;
24787;SDS011;12883;52.662;5.196;2023-10-19T13:33:20;7.47;;;7.47;;
24787;SDS011;12883;52.662;5.196;2023-10-19T13:35:46;5.97;;;5.97;;
24787;SDS011;12883;52.662;5.196;2023-10-19T13:38:13;6.05;;;6.05;;
24787;SDS011;12883;52.662;5.196;2023-10-19T13:40:41;5.78;;;5.78;;
24787;SDS011;12883;52.662;5.196;2023-10-19T13:43:07;6.57;;;6.57;;
24787;SDS011;12883;52.662;5.196;2023-10-19T13:45:34;6.57;;;6.55;;
24787;SDS011;12883;52.662;5.196;2023-10-19T13:48:04;6.10;;;6.10;;
24787;SDS011;12883;52.662;5.196;2023-10-19T13:50:31;6.03;;;6.03;;
24787;SDS011;12883;52.662;5.196;2023-10-19T13:52:57;6.63;;;6.63;;
24787;SDS011;12883;52.662;5.196;2023-10-19T13:55:24;6.60;;;6.57;;
24787;SDS011;12883;52.662;5.196;2023-10-19T13:57:50;5.60;;;5.60;;
24787;SDS011;12883;52.662;5.196;2023-10-19T14:00:16;6.18;;;6.18;;
24787;SDS011;12883;52.662;5.196;2023-10-19T14:02:56;5.85;;;5.85;;
24787;SDS011;12883;52.662;5.196;2023-10-19T14:05:23;5.50;;;5.43;;
24787;SDS011;12883;52.662;5.196;2023-10-19T14:07:49;5.28;;;5.28;;
24787;SDS011;12883;52.662;5.196;2023-10-19T14:10:15;5.97;;;5.97;;
24787;SDS011;12883;52.662;5.196;2023-10-19T14:12:41;6.15;;;6.15;;
24787;SDS011;12883;52.662;5.196;2023-10-19T14:15:16;6.40;;;6.40;;
24787;SDS011;12883;52.662;5.196;2023-10-19T14:17:44;7.28;;;7.18;;
24787;SDS011;12883;52.662;5.196;2023-10-19T14:20:11;6.70;;;6.70;;
24787;SDS011;12883;52.662;5.196;2023-10-19T14:22:58;7.32;;;7.32;;
24787;SDS011;12883;52.662;5.196;2023-10-19T14:25:23;7.32;;;7.32;;
24787;SDS011;12883;52.662;5.196;2023-10-19T14:27:52;7.50;;;7.50;;
24787;SDS011;12883;52.662;5.196;2023-10-19T14:30:24;7.95;;;7.95;;
24787;SDS011;12883;52.662;5.196;2023-10-19T14:32:52;7.88;;;7.88;;
24787;SDS011;12883;52.662;5.196;2023-10-19T14:35:21;8.77;;;8.77;;
24787;SDS011;12883;52.662;5.196;2023-10-19T14:37:48;8.43;;;8.40;;
24787;SDS011;12883;52.662;5.196;2023-10-19T14:40:16;8.63;;;8.52;;
24787;SDS011;12883;52.662;5.196;2023-10-19T14:42:45;8.10;;;8.10;;
24787;SDS011;12883;52.662;5.196;2023-10-19T14:45:11;9.52;;;9.52;;
24787;SDS011;12883;52.662;5.196;2023-10-19T14:47:39;9.43;;;9.35;;
24787;SDS011;12883;52.662;5.196;2023-10-19T14:50:06;9.40;;;9.38;;
24787;SDS011;12883;52.662;5.196;2023-10-19T14:52:36;9.48;;;9.48;;
24787;SDS011;12883;52.662;5.196;2023-10-19T14:55:02;9.25;;;9.15;;